Time;durP1;ratioP1;P1;durP2;ratioP2;P2;SDS_P1;SDS_P2;PMS_P1;PMS_P2;Temp;Humidity;BMP_temperature;BMP_pressure;BME280_temperature;BME280_humidity;BME280_pressure;Samples;Min_cycle;Max_cycle;Signal;HPM_P1;HPM_P2
2022/03/31 00:00:41;;;;;;;3.78;0.52;;;3.20;63.50;;;;;;5082874;28;20039;-67
2022/03/31 00:03:15;;;;;;;3.45;0.75;;;3.10;63.60;;;;;;5103114;28;20042;-67
2022/03/31 00:05:42;;;;;;;3.75;1.05;;;3.00;64.50;;;;;;5095099;28;20043;-67
2022/03/31 00:08:10;;;;;;;4.68;0.80;;;2.90;65.00;;;;;;5072983;28;20461;-67
2022/03/31 00:10:41;;;;;;;5.25;0.65;;;2.90;65.10;;;;;;5071966;28;20080;-67
2022/03/31 00:13:19;;;;;;;5.93;0.90;;;2.90;65.70;;;;;;5090997;28;20074;-67
2022/03/31 00:15:45;;;;;;;4.97;0.52;;;2.80;65.90;;;;;;5087402;28;20048;-67
2022/03/31 00:18:12;;;;;;;2.38;0.60;;;2.80;66.00;;;;;;5101341;28;20106;-67
2022/03/31 00:20:38;;;;;;;3.88;0.43;;;2.80;66.40;;;;;;5092792;28;20547;-68
2022/03/31 00:23:05;;;;;;;2.03;0.50;;;2.70;66.40;;;;;;5067108;28;20123;-68
2022/03/31 00:25:31;;;;;;;4.93;0.50;;;2.70;66.60;;;;;;5099762;28;20462;-68
2022/03/31 00:27:57;;;;;;;3.88;0.60;;;2.70;66.60;;;;;;5099661;28;20036;-68
2022/03/31 00:30:24;;;;;;;4.63;0.90;;;2.60;66.70;;;;;;5061218;28;20053;-68
2022/03/31 00:32:50;;;;;;;5.28;0.80;;;2.70;66.90;;;;;;5089362;28;20062;-68
2022/03/31 00:35:15;;;;;;;3.67;0.68;;;2.70;66.80;;;;;;5098749;28;20560;-68
2022/03/31 00:37:43;;;;;;;9.80;0.90;;;2.70;66.90;;;;;;5084186;28;20123;-67
2022/03/31 00:40:11;;;;;;;6.15;0.60;;;2.60;67.10;;;;;;5095949;28;20118;-68
2022/03/31 00:42:45;;;;;;;3.03;0.80;;;2.60;67.20;;;;;;5080837;28;20471;-68
2022/03/31 00:45:19;;;;;;;5.10;0.70;;;2.60;67.10;;;;;;5073760;28;20162;-68
2022/03/31 00:47:45;;;;;;;4.68;0.80;;;2.60;67.50;;;;;;5070474;28;20071;-68
2022/03/31 00:50:12;;;;;;;3.08;0.50;;;2.60;67.50;;;;;;5090269;28;20156;-68
2022/03/31 00:52:38;;;;;;;4.65;0.80;;;2.60;67.70;;;;;;5076736;28;20123;-68
2022/03/31 00:55:06;;;;;;;2.80;0.38;;;2.60;68.00;;;;;;5094807;28;20122;-68
2022/03/31 00:57:32;;;;;;;5.07;0.57;;;2.70;67.90;;;;;;5087315;28;20168;-68
2022/03/31 00:59:58;;;;;;;5.25;0.68;;;2.70;68.40;;;;;;5090608;28;20031;-68
2022/03/31 01:02:30;;;;;;;6.97;0.83;;;2.70;68.80;;;;;;5103659;28;20043;-68
2022/03/31 01:04:59;;;;;;;6.72;0.90;;;2.70;68.80;;;;;;5090387;28;20075;-68
2022/03/31 01:07:26;;;;;;;3.15;0.80;;;2.70;68.70;;;;;;5097262;28;20039;-68
2022/03/31 01:09:53;;;;;;;9.93;0.80;;;2.60;69.40;;;;;;5085496;28;20040;-68
2022/03/31 01:12:19;;;;;;;3.78;0.70;;;2.70;69.30;;;;;;5076814;28;20484;-68
2022/03/31 01:14:45;;;;;;;3.75;0.52;;;2.60;68.90;;;;;;5064001;28;20131;-68
2022/03/31 01:17:11;;;;;;;8.60;0.63;;;2.60;69.20;;;;;;5096548;28;20181;-68
2022/03/31 01:19:37;;;;;;;2.13;0.60;;;2.60;69.10;;;;;;5062990;28;20145;-68
2022/03/31 01:22:02;;;;;;;5.00;0.70;;;2.70;68.80;;;;;;5105293;28;20036;-68
2022/03/31 01:24:28;;;;;;;3.70;0.60;;;2.60;68.60;;;;;;5069047;28;20039;-68
2022/03/31 01:26:54;;;;;;;1.67;0.43;;;2.70;68.80;;;;;;5077619;28;20130;-68
2022/03/31 01:29:21;;;;;;;4.40;0.50;;;2.60;68.90;;;;;;5092374;28;20061;-68
2022/03/31 01:31:47;;;;;;;5.00;0.70;;;2.60;69.60;;;;;;5081325;28;20058;-68
2022/03/31 01:34:13;;;;;;;6.23;0.60;;;2.60;69.20;;;;;;5061223;28;20056;-68
2022/03/31 01:36:39;;;;;;;2.87;0.50;;;2.60;69.10;;;;;;5087891;28;20048;-68
2022/03/31 01:39:05;;;;;;;3.07;0.50;;;2.70;69.10;;;;;;5087617;28;20691;-68
2022/03/31 01:41:31;;;;;;;3.53;0.40;;;2.70;69.60;;;;;;5121655;27;20236;-68
2022/03/31 01:43:57;;;;;;;5.40;0.85;;;2.60;69.10;;;;;;5089007;28;20384;-68
2022/03/31 01:46:23;;;;;;;4.97;0.73;;;2.70;68.90;;;;;;5075272;28;20055;-68
2022/03/31 01:48:49;;;;;;;3.50;0.60;;;2.70;68.50;;;;;;5094798;28;20051;-68
2022/03/31 01:51:15;;;;;;;3.45;0.85;;;2.70;68.30;;;;;;5070717;28;20044;-68
2022/03/31 01:53:41;;;;;;;5.97;0.70;;;2.70;68.20;;;;;;5104656;27;20047;-68
2022/03/31 01:56:06;;;;;;;6.72;0.70;;;2.70;67.90;;;;;;5104199;27;20108;-68
2022/03/31 01:58:32;;;;;;;5.53;0.90;;;2.70;68.50;;;;;;5071025;28;20094;-68
2022/03/31 02:00:58;;;;;;;4.72;0.98;;;2.70;68.10;;;;;;5070448;28;20349;-68
2022/03/31 02:03:25;;;;;;;3.15;0.50;;;2.70;68.00;;;;;;5085652;28;20044;-68
2022/03/31 02:05:51;;;;;;;2.05;0.60;;;2.70;68.00;;;;;;5087587;28;20385;-68
2022/03/31 02:08:17;;;;;;;3.37;0.80;;;2.70;67.70;;;;;;5104622;27;20040;-68
2022/03/31 02:10:43;;;;;;;6.68;0.98;;;2.60;67.80;;;;;;5105672;27;20601;-68
2022/03/31 02:13:09;;;;;;;4.23;0.80;;;2.60;68.20;;;;;;5059967;28;20299;-68
2022/03/31 02:15:35;;;;;;;3.77;0.70;;;2.50;69.00;;;;;;5122058;27;20440;-68
2022/03/31 02:18:03;;;;;;;3.70;0.80;;;2.50;70.20;;;;;;5070981;28;20151;-68
2022/03/31 02:20:31;;;;;;;6.25;1.27;;;2.40;69.80;;;;;;5070873;28;20293;-68
2022/03/31 02:23:00;;;;;;;4.95;0.82;;;2.30;69.70;;;;;;5086629;28;20036;-68
2022/03/31 02:25:27;;;;;;;2.25;0.88;;;2.30;69.80;;;;;;5070089;28;20052;-68
2022/03/31 02:27:53;;;;;;;4.70;0.93;;;2.20;69.90;;;;;;5087163;28;20055;-68
2022/03/31 02:30:21;;;;;;;6.85;1.23;;;2.20;70.30;;;;;;5068479;28;20056;-68
2022/03/31 02:32:47;;;;;;;3.95;0.82;;;2.20;69.70;;;;;;5116746;27;20069;-68
2022/03/31 02:35:13;;;;;;;1.88;0.65;;;2.20;69.60;;;;;;5102059;28;20044;-68
2022/03/31 02:37:39;;;;;;;6.30;1.00;;;2.30;70.10;;;;;;5120013;27;20039;-68
2022/03/31 02:40:06;;;;;;;6.70;0.90;;;2.30;69.90;;;;;;5087052;28;20043;-68
2022/03/31 02:42:32;;;;;;;3.70;1.00;;;2.30;69.70;;;;;;5072958;28;20043;-68
2022/03/31 02:44:58;;;;;;;4.45;0.93;;;2.30;69.50;;;;;;5092067;28;20102;-68
2022/03/31 02:47:24;;;;;;;3.73;1.00;;;2.40;69.80;;;;;;5102863;28;20035;-68
2022/03/31 02:49:50;;;;;;;2.57;0.90;;;2.40;69.30;;;;;;5085711;28;20094;-68
2022/03/31 02:52:15;;;;;;;5.13;1.33;;;2.40;68.90;;;;;;5084700;28;20290;-68
2022/03/31 02:57:25;;;;;;;6.53;0.95;;;2.40;69.10;;;;;;5099586;28;20051;-68
2022/03/31 02:59:51;;;;;;;7.10;0.97;;;2.40;69.10;;;;;;5119735;27;20043;-68
2022/03/31 03:02:17;;;;;;;2.70;0.77;;;2.40;69.00;;;;;;5067951;28;20289;-68
2022/03/31 03:04:42;;;;;;;1.67;0.50;;;2.40;68.90;;;;;;5085347;28;20390;-68
2022/03/31 03:07:08;;;;;;;3.37;0.73;;;2.30;69.20;;;;;;5085374;28;20048;-68
2022/03/31 03:09:36;;;;;;;5.53;1.25;;;2.30;69.20;;;;;;5053554;28;20357;-68
2022/03/31 03:12:03;;;;;;;4.72;1.58;;;2.30;68.90;;;;;;5103385;27;20127;-68
2022/03/31 03:14:29;;;;;;;5.55;0.90;;;2.30;69.00;;;;;;5085220;28;20416;-68
2022/03/31 03:16:54;;;;;;;5.20;1.30;;;2.30;68.80;;;;;;5085031;28;20039;-68
2022/03/31 03:19:20;;;;;;;6.03;1.23;;;2.30;69.30;;;;;;5068416;28;20047;-68
2022/03/31 03:21:46;;;;;;;4.33;0.90;;;2.30;69.30;;;;;;5051125;28;20032;-68
2022/03/31 03:24:11;;;;;;;5.07;1.00;;;2.30;69.40;;;;;;5068511;28;20047;-68
2022/03/31 03:26:37;;;;;;;8.00;1.30;;;2.30;69.40;;;;;;5051165;28;20493;-68
2022/03/31 03:29:03;;;;;;;3.87;1.50;;;2.30;69.40;;;;;;5068484;28;20055;-68
2022/03/31 03:31:29;;;;;;;5.60;1.80;;;2.40;69.70;;;;;;5067633;28;20050;-68
2022/03/31 03:33:54;;;;;;;5.67;1.37;;;2.40;69.70;;;;;;5101532;28;20044;-68
2022/03/31 03:36:20;;;;;;;6.53;1.50;;;2.40;69.50;;;;;;5102346;28;20555;-68
2022/03/31 03:38:46;;;;;;;5.10;1.30;;;2.50;70.00;;;;;;5119477;27;20036;-68
2022/03/31 03:41:13;;;;;;;3.80;1.20;;;2.50;69.90;;;;;;5064985;28;20381;-68
2022/03/31 03:43:40;;;;;;;3.80;1.30;;;2.50;69.90;;;;;;5083210;28;20036;-68
2022/03/31 03:46:06;;;;;;;7.50;1.30;;;2.60;70.00;;;;;;5082034;28;20047;-68
2022/03/31 03:48:32;;;;;;;3.70;1.98;;;2.60;69.70;;;;;;5084539;28;20052;-68
2022/03/31 03:50:58;;;;;;;8.60;2.50;;;2.80;69.80;;;;;;5120076;27;20527;-68
2022/03/31 03:53:24;;;;;;;4.93;2.10;;;2.80;70.00;;;;;;5084347;28;20040;-68
2022/03/31 03:55:49;;;;;;;5.85;2.65;;;2.80;70.20;;;;;;5051405;28;20028;-68
2022/03/31 03:58:15;;;;;;;5.93;2.73;;;2.80;70.60;;;;;;5084460;28;20374;-68
2022/03/31 04:00:41;;;;;;;6.40;3.30;;;2.80;71.10;;;;;;5088865;28;20122;-68
2022/03/31 04:03:07;;;;;;;7.03;3.00;;;2.80;71.50;;;;;;5050347;28;20120;-68
2022/03/31 04:05:33;;;;;;;4.57;2.83;;;2.90;72.00;;;;;;5085177;28;20044;-68
2022/03/31 04:07:59;;;;;;;5.50;3.43;;;2.80;71.80;;;;;;5103423;28;20282;-68
2022/03/31 04:10:25;;;;;;;5.57;3.45;;;2.80;72.20;;;;;;5119449;27;20556;-68
2022/03/31 04:12:51;;;;;;;4.80;3.42;;;2.80;72.50;;;;;;5123025;27;20079;-67
2022/03/31 04:15:16;;;;;;;4.27;3.30;;;2.80;73.10;;;;;;5067862;28;20070;-67
2022/03/31 04:17:43;;;;;;;7.67;4.00;;;2.80;72.90;;;;;;5084475;28;20040;-67
2022/03/31 04:20:11;;;;;;;4.40;2.75;;;2.80;73.30;;;;;;5101490;28;20516;-67
2022/03/31 04:22:37;;;;;;;4.13;2.33;;;2.90;74.40;;;;;;5083708;28;20119;-67
2022/03/31 04:25:05;;;;;;;4.43;1.60;;;2.80;74.40;;;;;;5067543;28;20156;-67
2022/03/31 04:27:32;;;;;;;1.70;0.90;;;2.60;74.50;;;;;;5067224;28;20289;-67
2022/03/31 04:29:58;;;;;;;2.95;1.10;;;2.40;74.90;;;;;;5084625;28;20055;-67
2022/03/31 04:32:24;;;;;;;2.57;0.90;;;2.10;75.70;;;;;;5051318;28;20396;-67
2022/03/31 04:34:50;;;;;;;2.88;1.05;;;1.90;76.30;;;;;;5100800;28;20064;-67
2022/03/31 04:37:16;;;;;;;4.40;0.93;;;1.60;76.80;;;;;;5074116;28;20051;-67
2022/03/31 04:39:41;;;;;;;2.63;1.33;;;1.50;77.20;;;;;;5105819;28;20135;-67
2022/03/31 04:42:09;;;;;;;4.90;2.00;;;1.40;77.80;;;;;;5097800;28;20046;-68
2022/03/31 04:44:37;;;;;;;3.50;2.45;;;1.40;78.30;;;;;;5092436;28;20438;-68
2022/03/31 04:47:04;;;;;;;4.57;2.60;;;1.30;78.90;;;;;;5090514;28;20051;-69
2022/03/31 04:49:30;;;;;;;6.47;3.17;;;1.30;79.40;;;;;;5091431;28;20556;-69
2022/03/31 04:51:56;;;;;;;6.28;3.20;;;1.30;79.50;;;;;;5060945;28;20050;-69
2022/03/31 04:54:22;;;;;;;4.95;3.03;;;1.30;79.80;;;;;;5108345;28;20036;-69
2022/03/31 04:56:48;;;;;;;7.03;3.00;;;1.30;80.00;;;;;;5107928;27;20043;-69
2022/03/31 04:59:14;;;;;;;6.23;3.33;;;1.40;80.50;;;;;;5107618;27;20027;-69
2022/03/31 05:01:40;;;;;;;6.40;3.50;;;1.30;80.60;;;;;;5105848;28;20497;-70
2022/03/31 05:04:05;;;;;;;6.20;3.40;;;1.40;80.70;;;;;;5086908;27;20043;-70
2022/03/31 05:06:31;;;;;;;4.97;3.57;;;1.40;80.90;;;;;;5091341;27;20066;-70
2022/03/31 05:08:57;;;;;;;5.83;3.30;;;1.40;81.20;;;;;;5069751;27;20494;-70
2022/03/31 05:11:23;;;;;;;5.70;3.47;;;1.40;81.40;;;;;;5107017;28;20152;-70
2022/03/31 05:13:48;;;;;;;6.00;3.37;;;1.40;81.50;;;;;;5086418;28;20081;-69
2022/03/31 05:16:14;;;;;;;5.03;3.43;;;1.40;81.70;;;;;;5124692;27;20398;-69
2022/03/31 05:18:39;;;;;;;6.10;3.53;;;1.40;81.50;;;;;;5077727;28;20447;-69
2022/03/31 05:21:05;;;;;;;4.67;3.77;;;1.40;81.80;;;;;;5085085;28;20070;-69
2022/03/31 05:23:31;;;;;;;5.10;3.80;;;1.40;81.80;;;;;;5107903;27;20087;-69
2022/03/31 05:25:57;;;;;;;8.50;3.90;;;1.50;82.00;;;;;;5091721;28;20036;-69
2022/03/31 05:28:23;;;;;;;6.32;3.78;;;1.50;82.00;;;;;;5100037;28;20096;-69
2022/03/31 05:30:49;;;;;;;5.17;3.37;;;1.50;82.20;;;;;;5106617;28;20484;-69
2022/03/31 05:33:15;;;;;;;6.45;4.03;;;1.50;82.20;;;;;;5106981;28;20055;-69
2022/03/31 05:35:41;;;;;;;5.37;3.43;;;1.60;82.10;;;;;;5105182;28;20438;-69
2022/03/31 05:38:07;;;;;;;6.37;2.93;;;1.60;82.40;;;;;;5099309;28;20044;-69
2022/03/31 05:40:32;;;;;;;6.73;3.60;;;1.70;82.50;;;;;;5103614;28;20578;-69
2022/03/31 05:42:58;;;;;;;4.70;3.30;;;1.70;82.30;;;;;;5107566;27;20032;-69
2022/03/31 05:45:25;;;;;;;4.00;3.00;;;1.70;82.30;;;;;;5075031;28;20039;-69
2022/03/31 05:47:52;;;;;;;4.10;2.67;;;1.80;82.20;;;;;;5092149;27;20281;-69
2022/03/31 05:50:17;;;;;;;3.72;2.78;;;1.80;82.10;;;;;;5102907;28;20055;-69
2022/03/31 05:52:43;;;;;;;5.93;3.07;;;1.90;82.20;;;;;;5123714;27;20074;-69
2022/03/31 05:55:17;;;;;;;3.87;2.67;;;1.90;82.20;;;;;;5091005;28;20039;-69
2022/03/31 05:57:43;;;;;;;4.05;3.00;;;1.90;82.20;;;;;;5078420;27;20125;-69
2022/03/31 06:00:12;;;;;;;3.03;2.37;;;1.90;82.20;;;;;;5090690;28;20032;-69
2022/03/31 06:02:39;;;;;;;4.70;3.17;;;2.00;82.10;;;;;;5076680;27;20039;-69
2022/03/31 06:05:06;;;;;;;6.07;2.95;;;2.00;82.30;;;;;;5078598;28;20062;-69
2022/03/31 06:07:31;;;;;;;6.03;3.33;;;2.00;82.40;;;;;;5072893;27;20075;-69
2022/03/31 06:09:57;;;;;;;5.10;2.90;;;2.00;82.20;;;;;;5097984;28;20083;-69
2022/03/31 06:12:23;;;;;;;4.67;2.83;;;2.10;82.40;;;;;;5124517;27;20499;-69
2022/03/31 06:14:49;;;;;;;5.50;3.20;;;2.10;82.20;;;;;;5084265;28;20054;-69
2022/03/31 06:17:15;;;;;;;6.10;3.25;;;2.20;82.20;;;;;;5060642;27;20046;-69
2022/03/31 06:19:41;;;;;;;5.10;2.63;;;2.20;82.10;;;;;;5064484;28;20051;-68
2022/03/31 06:22:07;;;;;;;5.43;3.00;;;2.20;82.10;;;;;;5103613;27;20032;-68
2022/03/31 06:24:33;;;;;;;8.13;3.38;;;2.30;82.00;;;;;;5106373;27;20070;-68
2022/03/31 06:27:00;;;;;;;7.43;3.20;;;2.30;82.20;;;;;;5107622;27;20408;-68
2022/03/31 06:29:26;;;;;;;4.93;3.20;;;2.30;82.20;;;;;;5106526;28;20126;-69
2022/03/31 06:31:53;;;;;;;6.55;3.10;;;2.30;82.10;;;;;;5102102;27;20058;-69
2022/03/31 06:34:20;;;;;;;6.70;3.25;;;2.30;82.20;;;;;;5103082;27;20060;-69
2022/03/31 06:36:46;;;;;;;4.47;3.03;;;2.40;82.20;;;;;;5103143;27;20248;-69
2022/03/31 06:39:13;;;;;;;6.83;3.60;;;2.40;82.20;;;;;;5103703;27;20036;-69
2022/03/31 06:41:39;;;;;;;6.18;3.40;;;2.50;82.30;;;;;;5085896;28;20071;-69
2022/03/31 06:44:07;;;;;;;3.97;2.60;;;2.50;82.30;;;;;;5070487;28;20395;-69
2022/03/31 06:46:34;;;;;;;6.28;3.42;;;2.60;82.40;;;;;;5079408;28;20055;-69
2022/03/31 06:49:01;;;;;;;3.70;2.83;;;2.60;82.30;;;;;;5086497;28;20368;-69
2022/03/31 06:51:26;;;;;;;7.03;3.38;;;2.60;82.30;;;;;;5086433;28;20084;-69
2022/03/31 06:53:54;;;;;;;5.20;3.20;;;2.70;82.20;;;;;;5069903;28;20040;-69
2022/03/31 06:56:20;;;;;;;7.30;3.67;;;2.70;82.10;;;;;;5070168;28;20051;-69
2022/03/31 06:58:45;;;;;;;3.93;3.07;;;2.80;82.30;;;;;;5052946;28;20392;-69
2022/03/31 07:01:12;;;;;;;4.03;3.00;;;2.80;82.10;;;;;;5112561;27;20040;-69
2022/03/31 07:03:37;;;;;;;5.72;3.42;;;2.80;82.30;;;;;;5085801;28;20043;-69
2022/03/31 07:06:04;;;;;;;4.10;3.40;;;2.80;82.30;;;;;;5087137;28;20247;-70
2022/03/31 07:08:30;;;;;;;3.60;3.20;;;2.90;82.40;;;;;;5103380;27;20040;-69
2022/03/31 07:10:56;;;;;;;4.57;3.27;;;2.90;82.40;;;;;;5070126;28;20045;-69
2022/03/31 07:13:22;;;;;;;3.63;2.90;;;2.90;82.10;;;;;;5086388;28;20512;-69
2022/03/31 07:15:48;;;;;;;3.20;2.90;;;3.00;82.40;;;;;;5085764;28;20169;-69
2022/03/31 07:18:14;;;;;;;3.10;2.80;;;2.90;81.90;;;;;;5102330;27;20032;-69
2022/03/31 07:20:40;;;;;;;3.50;3.03;;;3.00;82.00;;;;;;5085517;28;20040;-69
2022/03/31 07:23:06;;;;;;;4.20;3.40;;;3.00;81.80;;;;;;5102001;28;20032;-69
2022/03/31 07:25:32;;;;;;;4.45;3.13;;;3.00;81.90;;;;;;5068302;28;20535;-69
2022/03/31 07:27:58;;;;;;;4.97;3.47;;;3.00;81.70;;;;;;5102624;28;20047;-69
2022/03/31 07:30:24;;;;;;;4.10;3.70;;;3.10;81.50;;;;;;5085526;28;20070;-69
2022/03/31 07:32:55;;;;;;;5.28;3.88;;;3.10;81.50;;;;;;5087452;28;20275;-69
2022/03/31 07:35:23;;;;;;;5.40;3.80;;;3.10;81.60;;;;;;5120303;27;20043;-69
2022/03/31 07:37:49;;;;;;;4.68;3.85;;;3.10;81.40;;;;;;5073290;28;20148;-69
2022/03/31 07:40:16;;;;;;;4.72;3.72;;;3.10;81.10;;;;;;5095739;28;20483;-69
2022/03/31 07:42:41;;;;;;;5.40;4.15;;;3.10;81.40;;;;;;5093572;28;20059;-69
2022/03/31 07:45:09;;;;;;;5.63;3.93;;;3.10;81.40;;;;;;5087311;28;20492;-69
2022/03/31 07:47:34;;;;;;;5.53;4.28;;;3.20;81.50;;;;;;5084297;28;20149;-69
2022/03/31 07:50:00;;;;;;;4.43;4.00;;;3.30;81.20;;;;;;5077301;28;20127;-69
2022/03/31 07:52:26;;;;;;;4.57;4.07;;;3.30;81.40;;;;;;5082142;28;20625;-69
2022/03/31 07:54:52;;;;;;;4.50;3.80;;;3.40;81.30;;;;;;5076479;28;20554;-69
2022/03/31 07:57:19;;;;;;;4.70;4.05;;;3.50;81.10;;;;;;5075517;28;20035;-69
2022/03/31 07:59:44;;;;;;;6.20;4.40;;;3.50;81.00;;;;;;5072978;28;20078;-69
2022/03/31 08:02:10;;;;;;;4.83;4.33;;;3.60;81.30;;;;;;5122041;27;20508;-69
2022/03/31 08:04:36;;;;;;;5.87;4.67;;;3.60;81.20;;;;;;5058722;28;20043;-69
2022/03/31 08:07:02;;;;;;;6.47;5.40;;;3.60;81.40;;;;;;5123419;27;20039;-69
2022/03/31 08:09:27;;;;;;;6.97;5.93;;;3.60;81.40;;;;;;5091097;28;20051;-69
2022/03/31 08:11:53;;;;;;;6.83;5.87;;;3.60;80.90;;;;;;5075098;28;20043;-69
2022/03/31 08:14:20;;;;;;;7.63;5.80;;;3.60;81.20;;;;;;5086049;28;20062;-70
2022/03/31 08:16:50;;;;;;;8.45;6.90;;;3.70;81.30;;;;;;5088627;28;20070;-69
2022/03/31 08:19:17;;;;;;;8.90;6.88;;;3.60;80.90;;;;;;5094550;28;20047;-69
2022/03/31 08:21:45;;;;;;;9.32;6.72;;;3.60;81.00;;;;;;5121772;27;20168;-69
2022/03/31 08:24:13;;;;;;;6.82;5.60;;;3.60;81.00;;;;;;5071759;28;20141;-69
2022/03/31 08:26:40;;;;;;;5.55;4.68;;;3.70;81.30;;;;;;5088913;28;20040;-69
2022/03/31 08:29:07;;;;;;;5.75;4.97;;;3.70;81.00;;;;;;5087541;28;20484;-70
2022/03/31 08:31:34;;;;;;;5.22;4.47;;;3.60;80.60;;;;;;5094390;28;20048;-69
2022/03/31 08:34:04;;;;;;;5.65;4.50;;;3.60;80.70;;;;;;5094309;28;20174;-69
2022/03/31 08:36:30;;;;;;;5.20;4.60;;;3.60;80.70;;;;;;5078632;28;20519;-70
2022/03/31 08:38:56;;;;;;;4.75;4.18;;;3.60;81.00;;;;;;5108423;27;20504;-70
2022/03/31 08:41:28;;;;;;;5.10;4.60;;;3.50;80.90;;;;;;5079262;28;20040;-70
2022/03/31 08:43:54;;;;;;;6.13;5.00;;;3.50;81.90;;;;;;5079526;28;20043;-70
2022/03/31 08:46:21;;;;;;;5.30;4.78;;;3.50;81.40;;;;;;5092627;28;20036;-69
2022/03/31 08:48:47;;;;;;;4.85;4.05;;;3.50;81.50;;;;;;5102733;28;20040;-70
2022/03/31 08:51:12;;;;;;;5.07;4.57;;;3.50;81.80;;;;;;5098356;28;20086;-70
2022/03/31 08:53:39;;;;;;;4.90;4.37;;;3.50;81.80;;;;;;5097394;28;20043;-70
2022/03/31 08:56:05;;;;;;;5.40;4.63;;;3.50;81.50;;;;;;5109964;27;20050;-70
2022/03/31 08:58:31;;;;;;;5.53;4.93;;;3.50;81.40;;;;;;5127481;27;20043;-70
2022/03/31 09:00:57;;;;;;;4.85;4.13;;;3.50;81.40;;;;;;5127002;27;20495;-70
2022/03/31 09:03:37;;;;;;;5.90;5.00;;;3.50;81.70;;;;;;5099980;28;20050;-70
2022/03/31 09:06:04;;;;;;;5.18;4.57;;;3.60;81.80;;;;;;5096092;27;20043;-70
2022/03/31 09:08:30;;;;;;;4.72;4.18;;;3.60;81.50;;;;;;5100784;28;20522;-70
2022/03/31 09:11:00;;;;;;;5.28;4.68;;;3.60;81.20;;;;;;5103686;28;20047;-70
2022/03/31 09:13:31;;;;;;;6.15;4.70;;;3.60;81.40;;;;;;5081891;28;20039;-70
2022/03/31 09:15:58;;;;;;;6.70;5.22;;;3.60;81.70;;;;;;5101026;28;20504;-70
2022/03/31 09:18:26;;;;;;;5.30;3.95;;;3.50;81.60;;;;;;5104273;28;20044;-70
2022/03/31 09:20:55;;;;;;;4.82;4.10;;;3.60;81.90;;;;;;5101119;28;20118;-70
2022/03/31 09:23:24;;;;;;;5.32;4.47;;;3.50;81.20;;;;;;5095024;27;20502;-70
2022/03/31 09:25:51;;;;;;;4.85;4.00;;;3.50;80.80;;;;;;5103431;28;20043;-69
2022/03/31 09:28:24;;;;;;;6.30;4.80;;;3.40;80.80;;;;;;5096796;28;20054;-69
2022/03/31 09:30:52;;;;;;;6.18;5.05;;;3.50;81.60;;;;;;5067735;28;20467;-69
2022/03/31 09:33:38;;;;;;;4.90;4.07;;;3.50;81.70;;;;;;5092970;28;20524;-69
2022/03/31 09:36:06;;;;;;;4.72;3.92;;;3.60;82.20;;;;;;5088167;28;20078;-69
2022/03/31 09:38:36;;;;;;;6.70;5.13;;;3.70;82.30;;;;;;5089340;28;20101;-70
2022/03/31 09:41:23;;;;;;;4.50;3.65;;;3.70;81.90;;;;;;5070543;28;20028;-69
2022/03/31 09:43:51;;;;;;;5.38;4.20;;;3.70;82.00;;;;;;5068221;28;20044;-69
2022/03/31 09:46:28;;;;;;;4.75;3.72;;;3.70;81.80;;;;;;5096667;28;20119;-69
2022/03/31 09:48:55;;;;;;;5.40;4.28;;;3.80;81.40;;;;;;5087485;28;20070;-69
2022/03/31 09:51:23;;;;;;;4.78;3.92;;;3.80;81.60;;;;;;5054304;28;20101;-70
2022/03/31 09:53:51;;;;;;;5.55;4.57;;;3.80;81.50;;;;;;5071033;28;20038;-69
2022/03/31 09:56:26;;;;;;;5.68;4.25;;;3.90;81.50;;;;;;5088675;28;20119;-69
2022/03/31 09:58:55;;;;;;;7.43;5.03;;;3.80;80.90;;;;;;5088215;28;20115;-69
2022/03/31 10:01:22;;;;;;;6.32;4.80;;;3.70;80.50;;;;;;5069808;28;20055;-69
2022/03/31 10:03:49;;;;;;;6.72;4.82;;;3.60;80.40;;;;;;5069348;28;20044;-69
2022/03/31 10:06:16;;;;;;;7.07;5.10;;;3.60;80.40;;;;;;5053332;28;20227;-70
2022/03/31 10:08:44;;;;;;;6.10;4.72;;;3.60;80.80;;;;;;5087510;28;20119;-69
2022/03/31 10:11:14;;;;;;;5.60;4.72;;;3.50;80.80;;;;;;5100583;28;20067;-69
2022/03/31 10:13:53;;;;;;;6.68;4.55;;;3.50;80.70;;;;;;5099660;27;20043;-70
2022/03/31 10:16:25;;;;;;;4.90;3.58;;;3.40;81.10;;;;;;5127390;27;20079;-70
2022/03/31 10:18:51;;;;;;;4.35;3.75;;;3.40;80.80;;;;;;5095238;28;20614;-70
2022/03/31 10:21:28;;;;;;;5.43;3.70;;;3.30;80.70;;;;;;5098969;28;20107;-69
2022/03/31 10:26:40;;;;;;;4.20;3.30;;;3.20;81.40;;;;;;5099707;28;20047;-70
2022/03/31 10:29:16;;;;;;;3.97;3.17;;;3.20;81.00;;;;;;5100612;28;20101;-70
2022/03/31 10:31:46;;;;;;;4.18;3.50;;;3.20;81.40;;;;;;5122623;27;20404;-70
2022/03/31 10:34:14;;;;;;;4.07;3.65;;;3.20;81.60;;;;;;5085621;28;20059;-70
2022/03/31 10:36:44;;;;;;;4.50;3.38;;;3.10;81.30;;;;;;5102401;27;20048;-70
2022/03/31 10:39:24;;;;;;;4.50;3.58;;;3.20;81.50;;;;;;5113301;27;20051;-70
2022/03/31 10:42:10;;;;;;;5.03;3.70;;;3.30;81.20;;;;;;5092009;28;20042;-70
2022/03/31 10:44:35;;;;;;;4.90;3.70;;;3.30;80.70;;;;;;5072132;28;20364;-70
2022/03/31 10:47:09;;;;;;;5.97;3.90;;;3.30;80.30;;;;;;5097377;27;20040;-70
2022/03/31 10:49:36;;;;;;;4.93;3.95;;;3.30;81.00;;;;;;5068881;28;20105;-69
2022/03/31 10:52:19;;;;;;;5.20;4.00;;;3.20;81.10;;;;;;5086914;28;20044;-69
2022/03/31 10:54:46;;;;;;;4.53;3.60;;;3.20;80.90;;;;;;5084188;28;20047;-70
2022/03/31 10:57:15;;;;;;;4.45;3.92;;;3.10;80.80;;;;;;5086474;28;20071;-70
2022/03/31 10:59:42;;;;;;;4.88;4.13;;;3.10;80.90;;;;;;5106574;27;20603;-69
2022/03/31 11:02:09;;;;;;;4.75;4.28;;;3.10;81.50;;;;;;5107420;27;20654;-69
2022/03/31 11:04:51;;;;;;;5.78;4.95;;;3.10;81.30;;;;;;5070452;28;20052;-69
2022/03/31 11:07:22;;;;;;;6.90;5.15;;;3.00;81.00;;;;;;5082667;28;20074;-69
2022/03/31 11:09:59;;;;;;;6.28;5.57;;;2.90;80.60;;;;;;5086633;28;20058;-69
2022/03/31 11:12:28;;;;;;;7.72;5.65;;;2.90;80.70;;;;;;5087247;28;20044;-69
2022/03/31 11:15:00;;;;;;;4.80;4.25;;;3.10;81.50;;;;;;5086463;28;20075;-69
2022/03/31 11:17:28;;;;;;;5.93;5.00;;;3.30;81.30;;;;;;5068711;28;20044;-69
2022/03/31 11:19:55;;;;;;;5.70;4.88;;;3.30;79.90;;;;;;5085025;28;20507;-69
2022/03/31 11:22:27;;;;;;;4.70;3.95;;;3.30;80.40;;;;;;5084457;28;20508;-69
2022/03/31 11:25:13;;;;;;;5.15;4.07;;;3.20;79.70;;;;;;5085108;28;20079;-69
2022/03/31 11:27:41;;;;;;;5.05;4.50;;;3.00;79.40;;;;;;5068414;28;20056;-69
2022/03/31 11:30:13;;;;;;;6.07;4.45;;;2.90;79.60;;;;;;5068597;28;20573;-69
2022/03/31 11:32:40;;;;;;;5.63;5.03;;;2.90;80.10;;;;;;5084160;28;20043;-69
2022/03/31 11:35:12;;;;;;;5.35;4.68;;;2.80;79.80;;;;;;5100480;28;20047;-69
2022/03/31 11:37:50;;;;;;;6.68;5.65;;;2.70;80.30;;;;;;5091313;28;20053;-69
2022/03/31 11:40:28;;;;;;;6.00;5.15;;;2.60;80.20;;;;;;5092512;28;20039;-69
2022/03/31 11:42:56;;;;;;;5.57;4.70;;;2.60;80.20;;;;;;5078998;28;20488;-69
2022/03/31 11:45:36;;;;;;;5.80;4.72;;;2.60;80.60;;;;;;5071102;28;20037;-69
2022/03/31 11:48:11;;;;;;;5.25;4.63;;;2.60;81.00;;;;;;5072754;28;20107;-69
2022/03/31 11:50:40;;;;;;;5.47;4.80;;;2.50;80.10;;;;;;5070791;28;20048;-69
2022/03/31 11:53:24;;;;;;;5.38;4.72;;;2.50;80.30;;;;;;5095000;28;20075;-69
2022/03/31 11:56:06;;;;;;;5.03;4.53;;;2.40;80.10;;;;;;5099822;28;20420;-69
2022/03/31 11:58:47;;;;;;;5.63;4.57;;;2.30;80.00;;;;;;5088843;28;20052;-69
2022/03/31 12:01:14;;;;;;;4.60;3.97;;;2.30;80.50;;;;;;5094415;28;20046;-69
2022/03/31 12:03:40;;;;;;;5.45;4.28;;;2.20;80.60;;;;;;5065432;28;20032;-69
2022/03/31 12:06:07;;;;;;;4.70;3.60;;;2.20;80.90;;;;;;5061394;28;20510;-69
2022/03/31 12:08:33;;;;;;;4.50;3.85;;;2.20;81.00;;;;;;5100003;28;20577;-69
2022/03/31 12:11:00;;;;;;;4.65;3.63;;;2.10;80.90;;;;;;5086168;28;20495;-70
2022/03/31 12:13:27;;;;;;;5.18;4.07;;;2.10;80.80;;;;;;5089185;28;20119;-69
2022/03/31 12:16:08;;;;;;;5.38;4.15;;;2.00;80.90;;;;;;5089621;28;20842;-70
2022/03/31 12:18:35;;;;;;;6.13;4.25;;;1.90;80.60;;;;;;5091511;28;20086;-70
2022/03/31 12:21:06;;;;;;;6.65;4.90;;;1.80;80.90;;;;;;5102196;28;20466;-70
2022/03/31 12:23:32;;;;;;;4.90;4.20;;;1.70;81.50;;;;;;5076649;28;20101;-70
2022/03/31 12:25:59;;;;;;;6.95;4.72;;;1.70;81.90;;;;;;5100845;28;20039;-70
2022/03/31 12:28:25;;;;;;;6.57;4.10;;;1.70;81.70;;;;;;5086210;28;20262;-70
2022/03/31 12:30:53;;;;;;;5.40;4.13;;;1.70;81.90;;;;;;5104273;28;20119;-70
2022/03/31 12:33:25;;;;;;;5.82;4.40;;;1.50;81.70;;;;;;5102318;28;20130;-70
2022/03/31 12:36:02;;;;;;;5.15;4.47;;;1.40;81.70;;;;;;5104117;28;20055;-71
2022/03/31 12:38:49;;;;;;;5.07;3.85;;;1.40;82.20;;;;;;5094172;28;20126;-70
2022/03/31 12:41:15;;;;;;;4.82;3.75;;;1.30;82.40;;;;;;5078521;28;20153;-70
2022/03/31 12:43:41;;;;;;;5.27;4.13;;;1.30;82.60;;;;;;5099063;28;20036;-71
2022/03/31 12:46:16;;;;;;;6.10;3.90;;;1.30;82.90;;;;;;5066675;28;20050;-71
2022/03/31 12:49:02;;;;;;;5.20;3.72;;;1.20;82.60;;;;;;5070486;28;20041;-71
2022/03/31 12:51:28;;;;;;;4.82;3.85;;;1.10;82.70;;;;;;5093518;28;20047;-70
2022/03/31 12:53:54;;;;;;;5.93;4.55;;;1.00;82.80;;;;;;5081564;28;20039;-71
2022/03/31 12:56:25;;;;;;;5.33;3.93;;;1.00;82.80;;;;;;5070929;28;20437;-70
2022/03/31 12:58:53;;;;;;;4.72;3.83;;;1.00;83.00;;;;;;5089999;28;20372;-69
2022/03/31 13:01:20;;;;;;;6.45;3.63;;;0.90;83.30;;;;;;5090449;28;20517;-69
2022/03/31 13:03:49;;;;;;;4.32;3.25;;;1.00;83.70;;;;;;5095790;28;20396;-69
2022/03/31 13:06:16;;;;;;;4.18;3.28;;;0.90;83.70;;;;;;5090000;28;20399;-70